createdAt,value
2023-09-07T00:01:17.872Z,24.39
2023-09-07T00:03:46.623Z,24.37
2023-09-07T00:06:14.826Z,24.36
2023-09-07T00:08:43.767Z,24.24
2023-09-07T00:11:11.984Z,24.38
2023-09-07T00:13:40.605Z,24.45
2023-09-07T00:16:10.598Z,24.36
2023-09-07T00:18:39.202Z,24.29
2023-09-07T00:21:07.894Z,24.24
2023-09-07T00:23:36.211Z,24.25
2023-09-07T00:26:04.941Z,24.28
2023-09-07T00:28:33.347Z,24.20
2023-09-07T00:31:02.180Z,24.24
2023-09-07T00:33:30.483Z,24.20
2023-09-07T00:35:59.275Z,24.17
2023-09-07T00:38:27.487Z,24.25
2023-09-07T00:40:56.123Z,24.33
2023-09-07T00:43:24.496Z,24.40
2023-09-07T00:45:53.194Z,24.29
2023-09-07T00:48:22.157Z,24.26
2023-09-07T00:50:51.386Z,24.18
2023-09-07T00:53:20.094Z,24.10
2023-09-07T00:55:48.684Z,24.08
2023-09-07T00:58:17.120Z,24.18
2023-09-07T01:00:45.885Z,24.05
2023-09-07T01:03:15.724Z,24.08
2023-09-07T01:05:48.292Z,24.20
2023-09-07T01:08:28.865Z,24.17
2023-09-07T01:10:57.639Z,24.02
2023-09-07T01:13:26.079Z,24.03
2023-09-07T01:15:54.947Z,23.99
2023-09-07T01:18:37.932Z,24.05
2023-09-07T01:21:12.456Z,24.02
2023-09-07T01:23:42.957Z,24.01
2023-09-07T01:26:12.477Z,23.90
2023-09-07T01:28:40.814Z,23.90
2023-09-07T01:31:09.365Z,23.88
2023-09-07T01:33:37.606Z,23.89
2023-09-07T01:36:06.801Z,23.92
2023-09-07T01:38:35.031Z,23.85
2023-09-07T01:41:03.682Z,23.85
2023-09-07T01:43:31.997Z,23.88
2023-09-07T01:46:00.944Z,23.89
2023-09-07T01:48:29.550Z,23.85
2023-09-07T01:50:58.714Z,23.75
2023-09-07T01:53:27.058Z,23.71
2023-09-07T01:55:57.291Z,23.74
2023-09-07T01:58:25.643Z,23.65
2023-09-07T02:00:59.191Z,23.73
2023-09-07T02:03:28.309Z,23.73
2023-09-07T02:05:57.067Z,23.74
2023-09-07T02:08:25.394Z,23.71
2023-09-07T02:10:54.033Z,23.64
2023-09-07T02:13:22.257Z,23.71
2023-09-07T02:15:50.845Z,23.57
2023-09-07T02:18:19.231Z,23.70
2023-09-07T02:20:47.913Z,23.73
2023-09-07T02:23:16.354Z,23.69
2023-09-07T02:25:44.928Z,23.63
2023-09-07T02:28:13.118Z,23.66
2023-09-07T02:30:41.932Z,23.62
2023-09-07T02:33:10.226Z,23.65
2023-09-07T02:35:39.264Z,23.63
2023-09-07T02:38:07.670Z,23.67
2023-09-07T02:40:43.701Z,23.62
2023-09-07T02:43:12.480Z,23.58
2023-09-07T02:45:41.171Z,23.53
2023-09-07T02:48:09.610Z,23.65
2023-09-07T02:50:41.399Z,23.65
2023-09-07T02:53:09.877Z,23.66
2023-09-07T02:55:41.319Z,23.52
2023-09-07T02:58:09.809Z,23.44
2023-09-07T03:00:45.707Z,23.44
2023-09-07T03:03:16.250Z,23.38
2023-09-07T03:05:46.867Z,23.38
2023-09-07T03:08:16.331Z,23.30
2023-09-07T03:10:45.461Z,23.30
2023-09-07T03:13:14.026Z,23.41
2023-09-07T03:15:43.012Z,23.40
2023-09-07T03:18:14.300Z,23.35
2023-09-07T03:20:44.566Z,23.36
2023-09-07T03:23:12.817Z,23.29
2023-09-07T03:25:42.169Z,23.26
2023-09-07T03:28:10.302Z,23.27
2023-09-07T03:30:39.918Z,23.36
2023-09-07T03:33:08.267Z,23.18
2023-09-07T03:35:37.175Z,23.22
2023-09-07T03:38:06.316Z,23.30
2023-09-07T03:40:35.273Z,23.38
2023-09-07T03:43:03.601Z,23.35
2023-09-07T03:45:33.253Z,23.36
2023-09-07T03:48:02.397Z,23.34
2023-09-07T03:50:31.822Z,23.36
2023-09-07T03:53:00.256Z,23.33
2023-09-07T03:55:28.856Z,23.34
2023-09-07T03:57:57.154Z,23.36
2023-09-07T04:00:26.304Z,23.33
2023-09-07T04:02:54.659Z,23.34
2023-09-07T04:05:23.429Z,23.28
2023-09-07T04:07:52.284Z,23.29
2023-09-07T04:10:21.406Z,23.21
2023-09-07T04:12:49.791Z,23.19
2023-09-07T04:15:18.479Z,23.12
2023-09-07T04:17:47.264Z,23.09
2023-09-07T04:20:15.866Z,23.09
2023-09-07T04:22:44.147Z,23.09
2023-09-07T04:25:12.691Z,23.02
2023-09-07T04:27:41.318Z,23.02
2023-09-07T04:30:11.537Z,23.00
2023-09-07T04:32:40.305Z,22.96
2023-09-07T04:35:09.823Z,22.91
2023-09-07T04:37:39.125Z,22.88
2023-09-07T04:40:08.879Z,22.96
2023-09-07T04:42:37.238Z,22.87
2023-09-07T04:45:07.114Z,22.90
2023-09-07T04:47:35.590Z,22.84
2023-09-07T04:50:05.878Z,22.81
2023-09-07T04:52:36.327Z,22.77
2023-09-07T04:55:05.653Z,22.77
2023-09-07T04:57:37.684Z,22.82
2023-09-07T05:00:09.441Z,22.77
2023-09-07T05:02:41.828Z,22.76
2023-09-07T05:05:10.835Z,22.69
2023-09-07T05:07:39.100Z,22.74
2023-09-07T05:10:10.029Z,22.76
2023-09-07T05:12:38.546Z,22.68
2023-09-07T05:15:09.200Z,22.72
2023-09-07T05:17:38.153Z,22.72
2023-09-07T05:20:08.493Z,22.73
2023-09-07T05:22:41.036Z,22.79
2023-09-07T05:25:10.602Z,22.79
2023-09-07T05:27:39.538Z,22.85
2023-09-07T05:30:08.484Z,22.78
2023-09-07T05:32:36.783Z,22.76
2023-09-07T05:35:05.890Z,22.88
2023-09-07T05:37:34.643Z,22.92
2023-09-07T05:40:05.333Z,22.87
2023-09-07T05:42:33.581Z,22.87
2023-09-07T05:45:02.120Z,22.93
2023-09-07T05:47:30.687Z,22.83
2023-09-07T05:49:59.345Z,22.92
2023-09-07T05:52:27.545Z,23.04
2023-09-07T05:54:56.764Z,22.94
2023-09-07T05:57:25.036Z,22.97
2023-09-07T05:59:53.618Z,23.10
2023-09-07T06:02:22.192Z,23.07
2023-09-07T06:04:50.625Z,23.09
2023-09-07T06:07:21.015Z,23.11
2023-09-07T06:09:49.524Z,23.18
2023-09-07T06:12:17.899Z,23.26
2023-09-07T06:14:47.844Z,23.30
2023-09-07T06:17:16.038Z,23.44
2023-09-07T06:19:45.260Z,23.45
2023-09-07T06:22:13.609Z,23.59
2023-09-07T06:24:42.457Z,23.65
2023-09-07T06:27:10.670Z,23.68
2023-09-07T06:29:39.188Z,23.69
2023-09-07T06:32:07.973Z,23.66
2023-09-07T06:34:37.144Z,23.74
2023-09-07T06:37:06.200Z,23.76
2023-09-07T06:39:34.743Z,23.91
2023-09-07T06:42:05.606Z,23.99
2023-09-07T06:44:41.707Z,24.08
2023-09-07T06:47:10.204Z,24.19
2023-09-07T06:49:41.934Z,24.19
2023-09-07T06:52:10.640Z,24.27
2023-09-07T06:54:40.818Z,24.25
2023-09-07T06:57:10.105Z,24.29
2023-09-07T06:59:39.388Z,24.31
2023-09-07T07:02:07.687Z,24.36
2023-09-07T07:04:36.785Z,24.41
2023-09-07T07:07:06.621Z,24.47
2023-09-07T07:09:35.327Z,24.55
2023-09-07T07:12:03.998Z,24.62
2023-09-07T07:14:32.998Z,24.55
2023-09-07T07:17:03.519Z,24.66
2023-09-07T07:19:33.008Z,24.72
2023-09-07T07:22:04.262Z,24.74
2023-09-07T07:24:34.936Z,24.78
2023-09-07T07:27:04.904Z,24.80
2023-09-07T07:29:36.514Z,24.90
2023-09-07T07:32:05.439Z,24.94
2023-09-07T07:34:35.173Z,25.02
2023-09-07T07:37:05.037Z,25.09
2023-09-07T07:39:33.553Z,25.08
2023-09-07T07:42:01.880Z,25.13
2023-09-07T07:44:30.252Z,25.19
2023-09-07T07:46:58.601Z,25.25
2023-09-07T07:49:28.637Z,25.31
2023-09-07T07:51:58.875Z,25.38
2023-09-07T07:54:29.837Z,25.42
2023-09-07T07:56:59.639Z,25.46
2023-09-07T07:59:28.552Z,25.49
2023-09-07T08:01:56.832Z,25.54
2023-09-07T08:04:25.408Z,25.59
2023-09-07T08:06:57.693Z,25.66
2023-09-07T08:09:26.191Z,25.67
2023-09-07T08:11:54.353Z,25.71
2023-09-07T08:14:23.603Z,25.75
2023-09-07T08:16:52.144Z,25.73
2023-09-07T08:19:20.754Z,25.79
2023-09-07T08:21:48.873Z,25.85
2023-09-07T08:24:17.794Z,25.89
2023-09-07T08:26:45.934Z,25.97
2023-09-07T08:29:14.301Z,25.98
2023-09-07T08:31:42.580Z,26.04
2023-09-07T08:34:11.278Z,26.13
2023-09-07T08:36:39.501Z,26.14
2023-09-07T08:39:11.548Z,26.10
2023-09-07T08:41:58.223Z,26.10
2023-09-07T08:44:30.988Z,26.11
2023-09-07T08:47:01.458Z,26.17
2023-09-07T08:49:31.047Z,26.18
2023-09-07T08:52:00.842Z,26.14
2023-09-07T08:54:29.975Z,26.22
2023-09-07T08:56:59.093Z,26.24
2023-09-07T08:59:27.584Z,26.22
2023-09-07T09:02:01.821Z,26.27
2023-09-07T09:04:31.555Z,26.37
2023-09-07T09:07:00.000Z,26.33
2023-09-07T09:09:28.611Z,26.35
2023-09-07T09:12:10.969Z,26.39
2023-09-07T09:14:40.363Z,26.42
2023-09-07T09:17:14.019Z,26.38
2023-09-07T09:19:43.153Z,26.45
2023-09-07T09:22:13.229Z,26.49
2023-09-07T09:24:41.481Z,26.51
2023-09-07T09:27:09.998Z,26.50
2023-09-07T09:29:38.993Z,26.47
2023-09-07T09:32:09.187Z,26.52
2023-09-07T09:34:38.878Z,26.54
2023-09-07T09:37:14.750Z,26.56
2023-09-07T09:39:43.116Z,26.59
2023-09-07T09:42:11.965Z,26.59
2023-09-07T09:44:41.178Z,26.59
2023-09-07T09:47:09.839Z,26.60
2023-09-07T09:49:39.459Z,26.61
2023-09-07T09:52:09.148Z,26.63
2023-09-07T09:54:37.562Z,26.65
2023-09-07T09:57:06.449Z,26.67
2023-09-07T09:59:35.126Z,26.65
2023-09-07T10:02:04.723Z,26.64
2023-09-07T10:04:33.110Z,26.68
2023-09-07T10:07:06.785Z,26.70
2023-09-07T10:09:35.964Z,26.72
2023-09-07T10:12:06.584Z,26.72
2023-09-07T10:14:42.970Z,26.70
2023-09-07T10:17:11.616Z,26.73
2023-09-07T10:19:41.597Z,26.73
2023-09-07T10:22:10.142Z,26.72
2023-09-07T10:24:40.463Z,26.73
2023-09-07T10:27:10.150Z,26.75
2023-09-07T10:29:47.453Z,26.78
2023-09-07T10:32:20.180Z,26.81
2023-09-07T10:34:49.068Z,26.80
2023-09-07T10:37:17.607Z,26.84
2023-09-07T10:39:46.748Z,26.86
2023-09-07T10:42:26.210Z,26.89
2023-09-07T10:44:55.564Z,26.86
2023-09-07T10:47:24.277Z,26.89
2023-09-07T10:49:52.441Z,26.87
2023-09-07T10:52:20.938Z,26.85
2023-09-07T10:54:58.985Z,26.95
2023-09-07T10:57:28.152Z,26.95
2023-09-07T10:59:56.863Z,26.92
2023-09-07T11:02:25.600Z,26.88
2023-09-07T11:04:54.337Z,27.02
2023-09-07T11:07:22.903Z,27.21
2023-09-07T11:09:53.023Z,27.15
2023-09-07T11:12:22.527Z,26.99
2023-09-07T11:14:51.877Z,27.02
2023-09-07T11:17:20.485Z,27.13
2023-09-07T11:19:53.768Z,27.06
2023-09-07T11:22:23.880Z,27.03
2023-09-07T11:24:52.161Z,27.01
2023-09-07T11:27:20.703Z,27.07
2023-09-07T11:29:53.754Z,27.11
2023-09-07T11:32:23.295Z,27.14
2023-09-07T11:34:59.373Z,27.18
2023-09-07T11:37:28.472Z,27.10
2023-09-07T11:39:56.684Z,27.07
2023-09-07T11:42:28.399Z,27.12
2023-09-07T11:44:56.571Z,27.16
2023-09-07T11:47:25.076Z,27.24
2023-09-07T11:49:54.430Z,27.16
2023-09-07T11:52:23.242Z,27.16
2023-09-07T11:54:51.422Z,27.17
2023-09-07T11:57:19.990Z,27.11
2023-09-07T11:59:58.659Z,27.19
2023-09-07T12:02:28.813Z,27.26
2023-09-07T12:04:57.185Z,27.19
2023-09-07T12:07:26.498Z,27.21
2023-09-07T12:09:57.696Z,27.20
2023-09-07T12:12:26.259Z,27.28
2023-09-07T12:14:54.824Z,27.31
2023-09-07T12:17:24.375Z,27.45
2023-09-07T12:19:52.705Z,27.48
2023-09-07T12:22:21.178Z,27.38
2023-09-07T12:24:58.708Z,27.73
2023-09-07T12:27:44.248Z,27.47
2023-09-07T12:30:23.783Z,27.35
2023-09-07T12:32:53.435Z,27.43
2023-09-07T12:35:22.227Z,27.40
2023-09-07T12:37:51.358Z,27.38
2023-09-07T12:40:19.671Z,27.35
2023-09-07T12:42:48.366Z,27.39
2023-09-07T12:45:16.746Z,27.48
2023-09-07T12:47:45.550Z,27.42
2023-09-07T12:50:13.776Z,27.40
2023-09-07T12:52:42.476Z,27.43
2023-09-07T12:55:11.145Z,27.52
2023-09-07T12:57:39.805Z,27.64
2023-09-07T13:00:08.644Z,27.49
2023-09-07T13:02:37.890Z,27.44
2023-09-07T13:05:06.822Z,27.46
2023-09-07T13:07:36.635Z,27.48
2023-09-07T13:10:06.220Z,27.61
2023-09-07T13:12:34.881Z,27.73
2023-09-07T13:15:03.819Z,27.63
2023-09-07T13:17:33.429Z,27.57
2023-09-07T13:20:01.589Z,27.50
2023-09-07T13:22:30.156Z,27.61
2023-09-07T13:27:40.656Z,27.60
2023-09-07T13:30:13.652Z,27.57
2023-09-07T13:32:42.253Z,27.50
2023-09-07T13:35:10.709Z,27.55
2023-09-07T13:37:39.234Z,27.72
2023-09-07T13:40:09.177Z,27.75
2023-09-07T13:42:37.769Z,27.75
2023-09-07T13:45:06.569Z,27.83
2023-09-07T13:47:35.205Z,27.79
2023-09-07T13:50:04.312Z,27.84
2023-09-07T13:52:32.868Z,27.90
2023-09-07T13:55:01.120Z,27.93
2023-09-07T13:57:29.759Z,28.00
2023-09-07T13:59:57.921Z,27.95
2023-09-07T14:02:26.522Z,27.92
2023-09-07T14:04:54.729Z,27.93
2023-09-07T14:07:23.349Z,27.86
2023-09-07T14:09:52.110Z,28.00
2023-09-07T14:12:20.609Z,28.00
2023-09-07T14:14:49.468Z,28.02
2023-09-07T14:17:17.960Z,28.06
2023-09-07T14:19:46.784Z,28.01
2023-09-07T14:22:15.327Z,28.02
2023-09-07T14:24:43.516Z,28.14
2023-09-07T14:27:12.025Z,28.13
2023-09-07T14:29:40.268Z,28.02
2023-09-07T14:32:08.899Z,28.00
2023-09-07T14:34:38.388Z,28.02
2023-09-07T14:37:06.962Z,27.95
2023-09-07T14:39:36.955Z,28.03
2023-09-07T14:42:12.655Z,28.02
2023-09-07T14:44:41.063Z,27.98
2023-09-07T14:47:11.487Z,28.02
2023-09-07T14:49:39.700Z,28.08
2023-09-07T14:52:08.253Z,28.04
2023-09-07T14:54:36.583Z,28.02
2023-09-07T14:57:05.332Z,28.05
2023-09-07T14:59:33.544Z,28.06
2023-09-07T15:02:07.416Z,27.97
2023-09-07T15:04:36.097Z,28.04
2023-09-07T15:07:04.878Z,28.08
2023-09-07T15:09:33.079Z,28.10
2023-09-07T15:12:01.719Z,28.05
2023-09-07T15:14:30.080Z,28.05
2023-09-07T15:16:58.589Z,28.09
2023-09-07T15:19:26.831Z,28.06
2023-09-07T15:21:55.667Z,28.08
2023-09-07T15:24:23.947Z,28.04
2023-09-07T15:26:52.688Z,28.01
2023-09-07T15:29:21.874Z,28.02
2023-09-07T15:31:52.215Z,28.01
2023-09-07T15:34:20.606Z,28.05
2023-09-07T15:36:49.137Z,28.03
2023-09-07T15:39:17.429Z,28.03
2023-09-07T15:41:46.068Z,27.99
2023-09-07T15:44:14.486Z,28.00
2023-09-07T15:46:43.348Z,28.01
2023-09-07T15:49:12.038Z,27.96
2023-09-07T15:51:40.579Z,28.00
2023-09-07T15:54:08.934Z,27.98
2023-09-07T15:56:37.720Z,27.97
2023-09-07T15:59:05.962Z,27.97
2023-09-07T16:01:34.665Z,27.97
2023-09-07T16:04:02.949Z,27.98
2023-09-07T16:06:31.590Z,27.96
2023-09-07T16:08:59.718Z,28.03
2023-09-07T16:11:28.362Z,28.07
2023-09-07T16:13:56.895Z,28.02
2023-09-07T16:16:25.612Z,28.07
2023-09-07T16:18:53.970Z,28.07
2023-09-07T16:21:22.516Z,28.04
2023-09-07T16:23:52.338Z,27.90
2023-09-07T16:26:21.815Z,27.96
2023-09-07T16:28:50.215Z,27.92
2023-09-07T16:31:18.938Z,27.95
2023-09-07T16:33:47.342Z,27.93
2023-09-07T16:36:15.898Z,27.93
2023-09-07T16:38:44.097Z,27.88
2023-09-07T16:41:12.682Z,27.83
2023-09-07T16:43:41.022Z,27.80
2023-09-07T16:46:09.672Z,27.78
2023-09-07T16:48:38.177Z,27.85
2023-09-07T16:51:07.276Z,27.82
2023-09-07T16:53:35.920Z,27.86
2023-09-07T16:56:05.609Z,27.86
2023-09-07T17:01:08.305Z,27.82
2023-09-07T17:03:36.667Z,27.77
2023-09-07T17:06:05.378Z,27.75
2023-09-07T17:08:33.913Z,27.71
2023-09-07T17:11:03.317Z,27.69
2023-09-07T17:13:31.606Z,27.69
2023-09-07T17:16:00.214Z,27.69
2023-09-07T17:18:28.757Z,27.69
2023-09-07T17:20:57.471Z,27.67
2023-09-07T17:23:26.062Z,27.64
2023-09-07T17:25:54.610Z,27.67
2023-09-07T17:28:23.138Z,27.67
2023-09-07T17:30:51.776Z,27.62
2023-09-07T17:33:20.088Z,27.58
2023-09-07T17:35:48.813Z,27.55
2023-09-07T17:38:17.048Z,27.52
2023-09-07T17:40:45.978Z,27.49
2023-09-07T17:43:14.347Z,27.47
2023-09-07T17:45:43.010Z,27.53
2023-09-07T17:48:11.366Z,27.50
2023-09-07T17:50:41.195Z,27.43
2023-09-07T17:53:09.464Z,27.42
2023-09-07T17:55:38.533Z,27.49
2023-09-07T17:58:06.852Z,27.42
2023-09-07T18:00:35.508Z,27.44
2023-09-07T18:03:04.258Z,27.39
2023-09-07T18:05:32.984Z,27.37
2023-09-07T18:08:01.208Z,27.35
2023-09-07T18:10:30.059Z,27.34
2023-09-07T18:12:58.317Z,27.32
2023-09-07T18:15:27.073Z,27.31
2023-09-07T18:17:55.558Z,27.31
2023-09-07T18:20:24.244Z,27.29
2023-09-07T18:22:55.552Z,27.28
2023-09-07T18:25:24.559Z,27.30
2023-09-07T18:27:52.988Z,27.30
2023-09-07T18:30:21.789Z,27.27
2023-09-07T18:32:51.567Z,27.23
2023-09-07T18:35:20.368Z,27.24
2023-09-07T18:37:51.181Z,27.25
2023-09-07T18:40:21.825Z,27.26
2023-09-07T18:42:52.530Z,27.23
2023-09-07T18:45:22.447Z,27.19
2023-09-07T18:47:51.798Z,27.23
2023-09-07T18:50:24.490Z,27.21
2023-09-07T18:52:53.512Z,27.20
2023-09-07T18:55:22.337Z,27.28
2023-09-07T18:57:51.695Z,27.27
2023-09-07T19:00:20.519Z,27.22
2023-09-07T19:02:49.056Z,27.20
2023-09-07T19:05:17.889Z,27.23
2023-09-07T19:07:46.349Z,27.25
2023-09-07T19:10:14.865Z,27.18
2023-09-07T19:12:43.544Z,27.22
2023-09-07T19:15:12.153Z,27.16
2023-09-07T19:17:40.481Z,27.23
2023-09-07T19:20:10.220Z,27.17
2023-09-07T19:22:38.514Z,27.16
2023-09-07T19:25:09.023Z,27.14
2023-09-07T19:27:39.429Z,27.18
2023-09-07T19:30:09.108Z,27.21
2023-09-07T19:32:37.569Z,27.19
2023-09-07T19:35:07.897Z,27.18
2023-09-07T19:37:36.724Z,27.15
2023-09-07T19:40:05.899Z,27.17
2023-09-07T19:42:34.277Z,27.18
2023-09-07T19:45:05.988Z,27.15
2023-09-07T19:47:34.256Z,27.16
2023-09-07T19:50:03.176Z,27.17
2023-09-07T19:52:32.052Z,27.15
2023-09-07T19:55:00.713Z,27.13
2023-09-07T19:57:28.994Z,27.11
2023-09-07T19:59:57.548Z,27.14
2023-09-07T20:02:25.872Z,27.14
2023-09-07T20:04:54.712Z,27.12
2023-09-07T20:07:23.391Z,27.10
2023-09-07T20:09:52.176Z,27.09
2023-09-07T20:12:20.877Z,27.09
2023-09-07T20:14:50.191Z,27.08
2023-09-07T20:17:18.697Z,27.07
2023-09-07T20:19:47.891Z,27.04
2023-09-07T20:22:19.452Z,27.01
2023-09-07T20:24:48.279Z,26.99
2023-09-07T20:27:16.697Z,26.96
2023-09-07T20:29:47.052Z,26.94
2023-09-07T20:32:16.673Z,26.91
2023-09-07T20:34:45.976Z,26.87
2023-09-07T20:37:14.660Z,26.88
2023-09-07T20:39:44.573Z,26.90
2023-09-07T20:42:13.997Z,26.83
2023-09-07T20:44:42.769Z,26.82
2023-09-07T20:47:11.146Z,26.79
2023-09-07T20:49:39.737Z,26.76
2023-09-07T20:52:07.997Z,26.78
2023-09-07T20:54:36.780Z,26.77
2023-09-07T20:57:06.941Z,26.74
2023-09-07T20:59:35.698Z,26.74
2023-09-07T21:02:04.036Z,26.75
2023-09-07T21:04:33.538Z,26.69
2023-09-07T21:07:02.081Z,26.62
2023-09-07T21:09:30.739Z,26.65
2023-09-07T21:11:58.985Z,26.62
2023-09-07T21:14:27.607Z,26.61
2023-09-07T21:16:56.130Z,26.63
2023-09-07T21:19:24.864Z,26.57
2023-09-07T21:21:53.135Z,26.51
2023-09-07T21:24:21.892Z,26.50
2023-09-07T21:26:50.250Z,26.53
2023-09-07T21:29:19.024Z,26.51
2023-09-07T21:31:47.266Z,26.49
2023-09-07T21:34:16.108Z,26.38
2023-09-07T21:36:45.925Z,26.25
2023-09-07T21:39:14.696Z,26.30
2023-09-07T21:41:50.796Z,26.17
2023-09-07T21:44:20.597Z,26.17
2023-09-07T21:46:49.621Z,26.28
2023-09-07T21:49:19.105Z,26.04
2023-09-07T21:51:48.791Z,26.08
2023-09-07T21:54:17.513Z,26.06
2023-09-07T21:56:45.779Z,26.00
2023-09-07T21:59:14.588Z,26.05
2023-09-07T22:01:43.021Z,25.93
2023-09-07T22:04:13.047Z,25.88
2023-09-07T22:06:41.404Z,25.96
2023-09-07T22:09:10.022Z,25.81
2023-09-07T22:11:38.405Z,25.88
2023-09-07T22:14:07.134Z,25.93
2023-09-07T22:16:35.591Z,25.95
2023-09-07T22:19:05.928Z,25.86
2023-09-07T22:21:34.171Z,25.80
2023-09-07T22:24:03.096Z,25.79
2023-09-07T22:26:31.542Z,25.90
2023-09-07T22:29:00.426Z,25.89
2023-09-07T22:31:28.900Z,25.97
2023-09-07T22:33:57.507Z,26.02
2023-09-07T22:36:25.774Z,26.02
2023-09-07T22:38:57.219Z,26.07
2023-09-07T22:41:25.521Z,26.12
2023-09-07T22:43:54.200Z,26.06
2023-09-07T22:46:22.492Z,26.07
2023-09-07T22:48:51.247Z,26.07
2023-09-07T22:51:20.135Z,26.11
2023-09-07T22:53:49.068Z,26.10
2023-09-07T22:56:17.402Z,26.09
2023-09-07T22:58:46.054Z,26.08
2023-09-07T23:01:14.404Z,26.12
2023-09-07T23:03:52.281Z,26.18
2023-09-07T23:06:20.708Z,26.18
2023-09-07T23:08:50.063Z,26.11
2023-09-07T23:11:20.168Z,26.06
2023-09-07T23:13:49.221Z,26.00
2023-09-07T23:16:17.570Z,26.09
2023-09-07T23:18:46.354Z,26.02
2023-09-07T23:21:14.647Z,26.04
2023-09-07T23:23:43.198Z,25.96
2023-09-07T23:26:11.555Z,25.98
2023-09-07T23:28:40.198Z,25.98
2023-09-07T23:31:09.770Z,25.96
2023-09-07T23:33:38.547Z,25.96
2023-09-07T23:36:07.997Z,25.95
2023-09-07T23:38:36.796Z,25.95
2023-09-07T23:41:05.275Z,25.99
2023-09-07T23:43:33.900Z,25.98
2023-09-07T23:46:02.207Z,25.97
2023-09-07T23:48:30.853Z,26.01
2023-09-07T23:50:59.150Z,26.04
2023-09-07T23:53:27.726Z,26.03
2023-09-07T23:55:55.975Z,26.04
2023-09-07T23:58:24.718Z,26.03
